TCN255 KJAN-CYVR
Flight info
| Callsign | TCN255 |
|---|---|
| Flight time | N/A |
| Altitude | 36000 |
| Route | MHZ DCT FSM DCT ICT/N0517F380 J182 KIRKE Q148 FINUT DCT METOW GRIZZ9 |
| Aircraft | C750/M-SDFGHIRUWY/L |
Departure
| Time | N/A |
|---|---|
| Airport | Jackson-Medgar Wiley Evers International Airport (KJAN) |
Arrival
| Time | 2026-05-05 19:56 |
|---|---|
| Airport | Vancouver International Airport (CYVR) |
| Time | Latitude | Longitude | Altitude | Speed | Heading |
|---|---|---|---|---|---|
| 2026-05-05 19:07 | 46.74088 | -117.05825 | 37985 ft | 483 kts | 300° |
| 2026-05-05 19:07 | 46.75597 | -117.10149 | 37989 ft | 475 kts | 307° |
| 2026-05-05 19:08 | 46.79296 | -117.18050 | 38006 ft | 471 kts | 311° |
| 2026-05-05 19:08 | 46.82387 | -117.24598 | 38001 ft | 471 kts | 310° |
| 2026-05-05 19:09 | 46.86127 | -117.32465 | 37990 ft | 471 kts | 311° |
| 2026-05-05 19:09 | 46.89854 | -117.40347 | 37970 ft | 472 kts | 310° |
| 2026-05-05 19:10 | 46.94188 | -117.49535 | 37955 ft | 472 kts | 310° |
| 2026-05-05 19:10 | 46.97304 | -117.56161 | 37948 ft | 471 kts | 310° |
| 2026-05-05 19:11 | 47.01022 | -117.64089 | 37949 ft | 473 kts | 310° |
| 2026-05-05 19:11 | 47.04738 | -117.72034 | 37941 ft | 472 kts | 310° |
| 2026-05-05 19:12 | 47.08444 | -117.79981 | 37943 ft | 472 kts | 310° |
| 2026-05-05 19:12 | 47.12147 | -117.87943 | 37947 ft | 472 kts | 310° |
| 2026-05-05 19:13 | 47.15846 | -117.95923 | 37939 ft | 473 kts | 310° |
| 2026-05-05 19:13 | 47.19544 | -118.03921 | 37938 ft | 473 kts | 310° |
| 2026-05-05 19:14 | 47.23215 | -118.11885 | 37940 ft | 473 kts | 310° |
| 2026-05-05 19:14 | 47.26928 | -118.19961 | 37945 ft | 473 kts | 310° |
| 2026-05-05 19:15 | 47.30585 | -118.27941 | 37947 ft | 473 kts | 310° |
| 2026-05-05 19:15 | 47.34264 | -118.35991 | 37954 ft | 474 kts | 310° |
| 2026-05-05 19:16 | 47.37942 | -118.44062 | 37954 ft | 474 kts | 309° |
| 2026-05-05 19:16 | 47.41615 | -118.52149 | 37956 ft | 474 kts | 309° |
| 2026-05-05 19:17 | 47.45286 | -118.60252 | 37956 ft | 474 kts | 309° |
| 2026-05-05 19:17 | 47.48950 | -118.68364 | 37952 ft | 474 kts | 309° |
| 2026-05-05 19:18 | 47.52609 | -118.76489 | 37950 ft | 475 kts | 309° |
| 2026-05-05 19:18 | 47.56266 | -118.84635 | 37955 ft | 475 kts | 309° |
| 2026-05-05 19:19 | 47.59918 | -118.92794 | 37952 ft | 475 kts | 309° |
| 2026-05-05 19:19 | 47.63564 | -119.00962 | 37952 ft | 475 kts | 309° |
| 2026-05-05 19:20 | 47.67204 | -119.09143 | 37957 ft | 475 kts | 309° |
| 2026-05-05 19:20 | 47.70841 | -119.17340 | 37952 ft | 475 kts | 309° |
| 2026-05-05 19:21 | 47.74473 | -119.25550 | 37958 ft | 476 kts | 309° |
| 2026-05-05 19:21 | 47.78095 | -119.33767 | 37958 ft | 475 kts | 309° |
| 2026-05-05 19:22 | 47.81720 | -119.42007 | 37951 ft | 476 kts | 308° |
| 2026-05-05 19:22 | 47.85341 | -119.50273 | 37948 ft | 477 kts | 308° |
| 2026-05-05 19:23 | 47.88962 | -119.58555 | 37942 ft | 477 kts | 308° |
| 2026-05-05 19:23 | 47.92572 | -119.66844 | 37945 ft | 477 kts | 308° |
| 2026-05-05 19:24 | 47.96181 | -119.75153 | 37939 ft | 478 kts | 308° |
| 2026-05-05 19:24 | 47.99787 | -119.83481 | 37941 ft | 477 kts | 308° |
| 2026-05-05 19:25 | 48.03389 | -119.91824 | 37939 ft | 478 kts | 308° |
| 2026-05-05 19:25 | 48.06990 | -120.00190 | 37942 ft | 478 kts | 308° |
| 2026-05-05 19:26 | 48.10580 | -120.08560 | 37943 ft | 478 kts | 307° |
| 2026-05-05 19:26 | 48.13664 | -120.17454 | 37948 ft | 488 kts | 296° |
| 2026-05-05 19:27 | 48.15498 | -120.27263 | 37973 ft | 494 kts | 290° |
| 2026-05-05 19:27 | 48.17272 | -120.37191 | 37889 ft | 495 kts | 290° |
| 2026-05-05 19:28 | 48.18154 | -120.42214 | 37205 ft | 498 kts | 290° |
| 2026-05-05 19:28 | 48.19020 | -120.47233 | 36542 ft | 498 kts | 290° |
| 2026-05-05 19:28 | 48.19895 | -120.52251 | 35894 ft | 497 kts | 289° |
| 2026-05-05 19:28 | 48.20778 | -120.57274 | 35242 ft | 500 kts | 290° |
| 2026-05-05 19:29 | 48.21661 | -120.62334 | 34580 ft | 504 kts | 289° |
| 2026-05-05 19:29 | 48.22537 | -120.67424 | 33923 ft | 504 kts | 289° |
| 2026-05-05 19:29 | 48.23417 | -120.72542 | 33226 ft | 510 kts | 289° |
| 2026-05-05 19:29 | 48.24308 | -120.77700 | 32551 ft | 511 kts | 289° |
| 2026-05-05 19:30 | 48.25191 | -120.82836 | 31893 ft | 507 kts | 289° |
| 2026-05-05 19:30 | 48.26061 | -120.87939 | 31224 ft | 502 kts | 289° |
| 2026-05-05 19:30 | 48.26921 | -120.92989 | 30567 ft | 498 kts | 289° |
| 2026-05-05 19:30 | 48.27078 | -120.93910 | 30451 ft | 497 kts | 289° |
| 2026-05-05 19:31 | 48.27870 | -120.98547 | 29822 ft | 494 kts | 289° |
| 2026-05-05 19:31 | 48.28713 | -121.03517 | 29165 ft | 488 kts | 289° |
| 2026-05-05 19:31 | 48.29544 | -121.08438 | 28524 ft | 484 kts | 289° |
| 2026-05-05 19:31 | 48.30364 | -121.13311 | 27900 ft | 480 kts | 289° |
| 2026-05-05 19:32 | 48.31179 | -121.18145 | 27272 ft | 476 kts | 289° |
| 2026-05-05 19:32 | 48.31983 | -121.22935 | 26655 ft | 471 kts | 289° |
| 2026-05-05 19:32 | 48.32778 | -121.27689 | 26041 ft | 469 kts | 289° |
| 2026-05-05 19:32 | 48.33564 | -121.32410 | 25429 ft | 465 kts | 289° |
| 2026-05-05 19:33 | 48.34346 | -121.37105 | 24825 ft | 459 kts | 289° |
| 2026-05-05 19:33 | 48.35115 | -121.41742 | 24219 ft | 456 kts | 289° |
| 2026-05-05 19:33 | 48.35880 | -121.46365 | 23629 ft | 454 kts | 289° |
| 2026-05-05 19:33 | 48.36634 | -121.50939 | 22984 ft | 448 kts | 289° |
| 2026-05-05 19:34 | 48.37380 | -121.55474 | 22408 ft | 444 kts | 289° |
| 2026-05-05 19:34 | 48.38120 | -121.59978 | 21826 ft | 442 kts | 289° |
| 2026-05-05 19:34 | 48.38854 | -121.64459 | 21243 ft | 440 kts | 288° |
| 2026-05-05 19:35 | 48.40804 | -121.73019 | 20079 ft | 426 kts | 304° |
| 2026-05-05 19:35 | 48.42479 | -121.76645 | 19559 ft | 421 kts | 309° |
| 2026-05-05 19:35 | 48.44211 | -121.80177 | 19009 ft | 418 kts | 310° |
| 2026-05-05 19:35 | 48.45926 | -121.83703 | 18463 ft | 416 kts | 309° |
| 2026-05-05 19:36 | 48.47614 | -121.87236 | 17884 ft | 414 kts | 309° |
| 2026-05-05 19:36 | 48.49291 | -121.90746 | 17338 ft | 411 kts | 309° |
| 2026-05-05 19:36 | 48.50964 | -121.94215 | 16796 ft | 408 kts | 309° |
| 2026-05-05 19:36 | 48.52627 | -121.97664 | 16265 ft | 405 kts | 309° |
| 2026-05-05 19:37 | 48.54270 | -122.01098 | 15736 ft | 402 kts | 308° |
| 2026-05-05 19:37 | 48.55907 | -122.04529 | 15207 ft | 401 kts | 308° |
| 2026-05-05 19:37 | 48.57533 | -122.07928 | 14681 ft | 399 kts | 308° |
| 2026-05-05 19:37 | 48.59147 | -122.11326 | 14163 ft | 396 kts | 307° |
| 2026-05-05 19:38 | 48.60418 | -122.15015 | 14070 ft | 399 kts | 296° |
| 2026-05-05 19:38 | 48.61547 | -122.18845 | 14079 ft | 400 kts | 296° |
| 2026-05-05 19:38 | 48.62695 | -122.22674 | 14079 ft | 400 kts | 297° |
| 2026-05-05 19:38 | 48.63858 | -122.26490 | 14084 ft | 399 kts | 297° |
| 2026-05-05 19:39 | 48.65015 | -122.30326 | 13930 ft | 400 kts | 296° |
| 2026-05-05 19:39 | 48.66153 | -122.34153 | 13574 ft | 398 kts | 296° |
| 2026-05-05 19:39 | 48.67266 | -122.37891 | 13218 ft | 374 kts | 296° |
| 2026-05-05 19:39 | 48.68292 | -122.41327 | 12902 ft | 343 kts | 296° |
| 2026-05-05 19:40 | 48.69253 | -122.44533 | 12600 ft | 330 kts | 296° |
| 2026-05-05 19:40 | 48.70204 | -122.47713 | 12320 ft | 331 kts | 296° |
| 2026-05-05 19:40 | 48.71212 | -122.50821 | 12025 ft | 328 kts | 303° |
| 2026-05-05 19:40 | 48.72710 | -122.53384 | 12068 ft | 326 kts | 315° |
| 2026-05-05 19:41 | 48.74294 | -122.55851 | 12071 ft | 327 kts | 315° |
| 2026-05-05 19:41 | 48.75864 | -122.58343 | 12072 ft | 327 kts | 315° |
| 2026-05-05 19:41 | 48.77434 | -122.60838 | 12074 ft | 327 kts | 315° |
| 2026-05-05 19:41 | 48.79011 | -122.63325 | 12075 ft | 327 kts | 315° |
| 2026-05-05 19:42 | 48.80585 | -122.65809 | 12070 ft | 327 kts | 315° |
| 2026-05-05 19:42 | 48.82160 | -122.68305 | 12070 ft | 328 kts | 315° |
| 2026-05-05 19:42 | 48.83732 | -122.70799 | 12070 ft | 327 kts | 315° |
| 2026-05-05 19:42 | 48.85307 | -122.73299 | 12065 ft | 328 kts | 315° |
| 2026-05-05 19:43 | 48.86881 | -122.75798 | 11995 ft | 328 kts | 315° |
| 2026-05-05 19:43 | 48.88454 | -122.78299 | 11716 ft | 327 kts | 315° |
| 2026-05-05 19:43 | 48.90018 | -122.80788 | 11403 ft | 324 kts | 315° |
| 2026-05-05 19:43 | 48.91555 | -122.83236 | 11083 ft | 311 kts | 314° |
| 2026-05-05 19:44 | 48.92997 | -122.85539 | 10777 ft | 291 kts | 314° |
| 2026-05-05 19:44 | 48.94333 | -122.87670 | 10508 ft | 270 kts | 314° |
| 2026-05-05 19:44 | 48.95612 | -122.89712 | 10227 ft | 261 kts | 314° |
| 2026-05-05 19:44 | 48.96861 | -122.91707 | 9970 ft | 260 kts | 314° |
| 2026-05-05 19:45 | 48.98109 | -122.93702 | 9694 ft | 259 kts | 314° |
| 2026-05-05 19:45 | 48.99329 | -122.95655 | 9442 ft | 252 kts | 314° |
| 2026-05-05 19:45 | 49.00522 | -122.97567 | 9189 ft | 244 kts | 314° |
| 2026-05-05 19:45 | 49.01679 | -122.99422 | 8953 ft | 245 kts | 314° |
| 2026-05-05 19:46 | 49.02851 | -123.01301 | 8714 ft | 244 kts | 314° |
| 2026-05-05 19:46 | 49.04019 | -123.03176 | 8473 ft | 244 kts | 314° |
| 2026-05-05 19:46 | 49.05177 | -123.05045 | 8234 ft | 242 kts | 313° |
| 2026-05-05 19:46 | 49.06055 | -123.07227 | 7956 ft | 242 kts | 295° |
| 2026-05-05 19:47 | 49.06703 | -123.09560 | 7652 ft | 233 kts | 294° |
| 2026-05-05 19:47 | 49.07368 | -123.11873 | 7265 ft | 238 kts | 295° |
| 2026-05-05 19:47 | 49.08051 | -123.14180 | 7212 ft | 239 kts | 295° |
| 2026-05-05 19:47 | 49.08720 | -123.16463 | 6879 ft | 229 kts | 294° |
| 2026-05-05 19:48 | 49.09372 | -123.18718 | 5966 ft | 235 kts | 294° |
| 2026-05-05 19:48 | 49.09774 | -123.21100 | 5347 ft | 227 kts | 280° |
| 2026-05-05 19:48 | 49.10016 | -123.23429 | 4768 ft | 220 kts | 279° |
| 2026-05-05 19:48 | 49.10272 | -123.25744 | 4039 ft | 222 kts | 279° |
| 2026-05-05 19:49 | 49.10541 | -123.28072 | 3384 ft | 227 kts | 279° |
| 2026-05-05 19:49 | 49.10723 | -123.29658 | 3060 ft | 227 kts | 279° |
| 2026-05-05 19:49 | 49.11073 | -123.32754 | 3055 ft | 220 kts | 279° |
| 2026-05-05 19:49 | 49.11333 | -123.35064 | 3058 ft | 222 kts | 279° |
| 2026-05-05 19:50 | 49.11586 | -123.37390 | 3056 ft | 222 kts | 278° |
| 2026-05-05 19:50 | 49.11878 | -123.39623 | 2610 ft | 213 kts | 287° |
| 2026-05-05 19:50 | 49.12873 | -123.41431 | 1720 ft | 229 kts | 330° |
| 2026-05-05 19:50 | 49.14358 | -123.41769 | 1508 ft | 210 kts | 8° |
| 2026-05-05 19:51 | 49.15799 | -123.41398 | 1677 ft | 197 kts | 12° |
| 2026-05-05 19:51 | 49.17056 | -123.41100 | 1776 ft | 181 kts | 11° |
| 2026-05-05 19:51 | 49.18298 | -123.40817 | 1885 ft | 179 kts | 10° |
| 2026-05-05 19:51 | 49.19478 | -123.40547 | 1990 ft | 155 kts | 11° |
| 2026-05-05 19:52 | 49.20355 | -123.40022 | 1847 ft | 130 kts | 52° |
| 2026-05-05 19:52 | 49.20630 | -123.38732 | 1407 ft | 125 kts | 83° |
| 2026-05-05 19:52 | 49.20780 | -123.37510 | 1423 ft | 112 kts | 84° |
| 2026-05-05 19:52 | 49.20710 | -123.36320 | 1504 ft | 114 kts | 99° |
| 2026-05-05 19:53 | 49.20609 | -123.35116 | 1607 ft | 114 kts | 100° |
| 2026-05-05 19:53 | 49.20488 | -123.33917 | 1739 ft | 115 kts | 101° |
| 2026-05-05 19:53 | 49.20405 | -123.33114 | 1776 ft | 117 kts | 101° |
| 2026-05-05 19:53 | 49.20265 | -123.31843 | 1549 ft | 120 kts | 101° |
| 2026-05-05 19:54 | 49.20126 | -123.30612 | 1386 ft | 115 kts | 101° |
| 2026-05-05 19:54 | 49.19988 | -123.29404 | 1228 ft | 115 kts | 101° |
| 2026-05-05 19:54 | 49.19852 | -123.28209 | 1077 ft | 116 kts | 101° |
| 2026-05-05 19:54 | 49.19716 | -123.27010 | 913 ft | 113 kts | 101° |
| 2026-05-05 19:55 | 49.19581 | -123.25828 | 760 ft | 113 kts | 102° |
| 2026-05-05 19:55 | 49.19444 | -123.24624 | 603 ft | 117 kts | 101° |
| 2026-05-05 19:55 | 49.19306 | -123.23405 | 430 ft | 115 kts | 102° |
| 2026-05-05 19:55 | 49.19181 | -123.22223 | 246 ft | 112 kts | 101° |
| 2026-05-05 19:56 | 49.19042 | -123.21047 | 115 ft | 113 kts | 101° |
| 2026-05-05 19:56 | 49.18906 | -123.19868 | 35 ft | 112 kts | 101° |
| 2026-05-05 19:56 | 49.18775 | -123.18778 | 21 ft | 85 kts | 99° |
| 2026-05-05 19:56 | 49.18712 | -123.18205 | 19 ft | 27 kts | 99° |
| 2026-05-05 19:57 | 49.18634 | -123.18058 | 20 ft | 16 kts | 147° |
| 2026-05-05 19:57 | 49.18549 | -123.17952 | 20 ft | 15 kts | 143° |
| 2026-05-05 19:57 | 49.18480 | -123.17849 | 20 ft | 13 kts | 104° |
| 2026-05-05 19:57 | 49.18464 | -123.17711 | 20 ft | 13 kts | 99° |
| 2026-05-05 19:58 | 49.18446 | -123.17574 | 20 ft | 13 kts | 103° |
| 2026-05-05 19:58 | 49.18431 | -123.17439 | 22 ft | 13 kts | 101° |
| 2026-05-05 19:58 | 49.18398 | -123.17329 | 20 ft | 10 kts | 144° |
| 2026-05-05 19:58 | 49.18309 | -123.17231 | 21 ft | 18 kts | 144° |
| 2026-05-05 19:59 | 49.18263 | -123.17093 | 20 ft | 12 kts | 95° |
| 2026-05-05 19:59 | 49.18255 | -123.16962 | 20 ft | 12 kts | 95° |
| 2026-05-05 19:59 | 49.18247 | -123.16833 | 20 ft | 12 kts | 95° |
| 2026-05-05 19:59 | 49.18240 | -123.16706 | 20 ft | 12 kts | 95° |
| 2026-05-05 20:00 | 49.18233 | -123.16581 | 20 ft | 11 kts | 95° |
| 2026-05-05 20:00 | 49.18195 | -123.16551 | 22 ft | 9 kts | 162° |
| 2026-05-05 20:00 | 49.18167 | -123.16489 | 20 ft | 4 kts | 98° |
| 2026-05-05 20:00 | 49.18164 | -123.16457 | 20 ft | 3 kts | 98° |
| 2026-05-05 20:01 | 49.18163 | -123.16453 | 20 ft | 0 kts | 98° |
| 2026-05-05 20:01 | 49.18160 | -123.16432 | 20 ft | 5 kts | 112° |
| 2026-05-05 20:01 | 49.18147 | -123.16426 | 22 ft | 1 kts | 182° |
| 2026-05-05 20:02 | 49.18144 | -123.16426 | 21 ft | 0 kts | 179° |